createdAt,value
2023-08-10T00:01:13.616Z,101792.94
2023-08-10T00:03:40.542Z,101794.34
2023-08-10T00:06:08.813Z,101791.03
2023-08-10T00:08:35.609Z,101793.75
2023-08-10T00:11:02.506Z,101807.84
2023-08-10T00:13:30.727Z,101806.97
2023-08-10T00:15:57.724Z,101808.38
2023-08-10T00:18:24.633Z,101807.84
2023-08-10T00:20:51.440Z,101812.28
2023-08-10T00:23:19.637Z,101807.69
2023-08-10T00:25:46.512Z,101800.91
2023-08-10T00:28:13.424Z,101804.06
2023-08-10T00:30:40.723Z,101807.25
2023-08-10T00:33:10.788Z,101801.94
2023-08-10T00:35:40.290Z,101803.81
2023-08-10T00:38:07.380Z,101802.88
2023-08-10T00:40:36.075Z,101803.56
2023-08-10T00:43:03.506Z,101793.38
2023-08-10T00:45:31.033Z,101799.00
2023-08-10T00:47:58.925Z,101801.81
2023-08-10T00:50:26.114Z,101809.91
2023-08-10T00:52:53.339Z,101804.28
2023-08-10T00:55:20.387Z,101801.34
2023-08-10T00:57:48.791Z,101802.03
2023-08-10T01:00:15.834Z,101796.28
2023-08-10T01:02:42.800Z,101795.31
2023-08-10T01:05:14.707Z,101796.88
2023-08-10T01:07:50.275Z,101792.28
2023-08-10T01:10:27.236Z,101790.75
2023-08-10T01:13:01.189Z,101792.41
2023-08-10T01:15:36.090Z,101788.44
2023-08-10T01:18:09.432Z,101786.66
2023-08-10T01:20:38.026Z,101785.72
2023-08-10T01:23:14.650Z,101783.22
2023-08-10T01:25:43.804Z,101785.13
2023-08-10T01:28:13.965Z,101793.28
2023-08-10T01:30:41.802Z,101784.84
2023-08-10T01:33:09.723Z,101789.78
2023-08-10T01:35:37.538Z,101784.41
2023-08-10T01:38:05.975Z,101776.09
2023-08-10T01:40:33.086Z,101787.69
2023-08-10T01:43:01.425Z,101787.56
2023-08-10T01:45:28.554Z,101783.59
2023-08-10T01:47:59.009Z,101789.66
2023-08-10T01:50:28.804Z,101785.31
2023-08-10T01:52:57.903Z,101787.31
2023-08-10T01:55:25.034Z,101783.41
2023-08-10T01:57:52.702Z,101781.66
2023-08-10T02:00:21.722Z,101776.16
2023-08-10T02:02:48.688Z,101779.47
2023-08-10T02:05:15.965Z,101781.44
2023-08-10T02:07:43.379Z,101793.03
2023-08-10T02:10:11.144Z,101794.88
2023-08-10T02:12:37.970Z,101792.56
2023-08-10T02:15:06.486Z,101796.16
2023-08-10T02:17:37.940Z,101798.97
2023-08-10T02:20:14.744Z,101801.28
2023-08-10T02:22:43.905Z,101815.03
2023-08-10T02:25:11.024Z,101798.63
2023-08-10T02:27:39.494Z,101802.25
2023-08-10T02:30:07.913Z,101805.88
2023-08-10T02:32:36.381Z,101802.75
2023-08-10T02:35:06.952Z,101795.94
2023-08-10T02:37:34.267Z,101798.53
2023-08-10T02:40:01.711Z,101796.56
2023-08-10T02:42:28.639Z,101792.53
2023-08-10T02:44:55.446Z,101801.09
2023-08-10T02:47:22.333Z,101805.41
2023-08-10T02:49:50.617Z,101797.81
2023-08-10T02:52:17.425Z,101797.13
2023-08-10T02:54:44.280Z,101804.38
2023-08-10T02:57:11.100Z,101799.78
2023-08-10T02:59:37.950Z,101797.66
2023-08-10T03:02:05.125Z,101800.25
2023-08-10T03:04:32.387Z,101806.09
2023-08-10T03:07:01.574Z,101800.34
2023-08-10T03:09:28.969Z,101803.16
2023-08-10T03:11:55.881Z,101801.56
2023-08-10T03:14:22.803Z,101798.28
2023-08-10T03:16:50.114Z,101794.66
2023-08-10T03:19:17.005Z,101798.03
2023-08-10T03:21:43.848Z,101801.28
2023-08-10T03:24:12.091Z,101789.34
2023-08-10T03:26:38.988Z,101781.88
2023-08-10T03:29:06.127Z,101789.72
2023-08-10T03:31:33.073Z,101792.03
2023-08-10T03:34:00.010Z,101787.22
2023-08-10T03:36:27.024Z,101795.53
2023-08-10T03:38:53.819Z,101787.78
2023-08-10T03:41:22.028Z,101786.16
2023-08-10T03:43:48.892Z,101780.41
2023-08-10T03:46:15.767Z,101787.19
2023-08-10T03:48:42.601Z,101788.00
2023-08-10T03:51:09.420Z,101785.19
2023-08-10T03:53:37.119Z,101791.66
2023-08-10T03:56:04.292Z,101793.50
2023-08-10T03:58:32.515Z,101799.31
2023-08-10T04:00:59.413Z,101800.16
2023-08-10T04:03:26.480Z,101798.50
2023-08-10T04:05:53.485Z,101805.63
2023-08-10T04:08:20.758Z,101807.97
2023-08-10T04:10:48.003Z,101808.78
2023-08-10T04:13:14.883Z,101812.91
2023-08-10T04:15:43.096Z,101809.28
2023-08-10T04:18:10.028Z,101814.41
2023-08-10T04:20:36.962Z,101812.91
2023-08-10T04:23:04.083Z,101808.59
2023-08-10T04:25:31.157Z,101814.81
2023-08-10T04:27:58.041Z,101807.53
2023-08-10T04:30:30.803Z,101807.06
2023-08-10T04:32:59.560Z,101810.72
2023-08-10T04:35:27.292Z,101809.19
2023-08-10T04:37:54.737Z,101809.53
2023-08-10T04:40:22.759Z,101812.47
2023-08-10T04:42:49.792Z,101813.78
2023-08-10T04:45:17.053Z,101817.09
2023-08-10T04:47:44.181Z,101816.28
2023-08-10T04:50:13.176Z,101817.91
2023-08-10T04:52:42.406Z,101820.50
2023-08-10T04:55:10.596Z,101817.53
2023-08-10T04:57:37.824Z,101816.53
2023-08-10T05:00:14.053Z,101816.53
2023-08-10T05:02:41.350Z,101820.66
2023-08-10T05:05:10.288Z,101819.81
2023-08-10T05:07:39.092Z,101819.81
2023-08-10T05:10:09.624Z,101831.00
2023-08-10T05:12:38.009Z,101829.84
2023-08-10T05:15:06.208Z,101832.34
2023-08-10T05:17:34.475Z,101818.72
2023-08-10T05:20:01.457Z,101814.22
2023-08-10T05:22:28.388Z,101816.13
2023-08-10T05:24:57.304Z,101818.56
2023-08-10T05:27:24.299Z,101813.91
2023-08-10T05:29:51.524Z,101813.13
2023-08-10T05:32:19.620Z,101812.56
2023-08-10T05:34:46.663Z,101807.38
2023-08-10T05:37:13.545Z,101809.28
2023-08-10T05:39:40.766Z,101810.97
2023-08-10T05:42:09.206Z,101806.53
2023-08-10T05:44:36.057Z,101810.53
2023-08-10T05:47:04.043Z,101816.56
2023-08-10T05:49:30.862Z,101824.53
2023-08-10T05:51:57.742Z,101819.63
2023-08-10T05:54:24.580Z,101828.06
2023-08-10T05:56:51.531Z,101830.41
2023-08-10T05:59:20.983Z,101830.88
2023-08-10T06:01:48.853Z,101835.91
2023-08-10T06:04:15.732Z,101830.25
2023-08-10T06:06:42.688Z,101838.84
2023-08-10T06:09:09.556Z,101835.13
2023-08-10T06:14:28.908Z,101839.00
2023-08-10T06:16:55.858Z,101839.31
2023-08-10T06:19:22.728Z,101841.94
2023-08-10T06:21:49.757Z,101845.97
2023-08-10T06:24:17.397Z,101839.91
2023-08-10T06:26:44.549Z,101847.66
2023-08-10T06:29:11.531Z,101846.28
2023-08-10T06:31:39.832Z,101841.34
2023-08-10T06:34:06.696Z,101846.09
2023-08-10T06:36:34.815Z,101845.94
2023-08-10T06:39:02.152Z,101852.97
2023-08-10T06:41:29.069Z,101866.22
2023-08-10T06:43:56.076Z,101865.38
2023-08-10T06:46:23.162Z,101865.81
2023-08-10T06:48:51.390Z,101861.25
2023-08-10T06:51:18.223Z,101860.72
2023-08-10T06:53:45.364Z,101855.09
2023-08-10T06:56:12.275Z,101853.78
2023-08-10T07:01:08.878Z,101842.75
2023-08-10T07:03:38.330Z,101854.84
2023-08-10T07:06:06.561Z,101850.16
2023-08-10T07:08:33.360Z,101841.03
2023-08-10T07:11:02.377Z,101843.56
2023-08-10T07:13:29.676Z,101848.97
2023-08-10T07:15:56.750Z,101842.22
2023-08-10T07:18:23.617Z,101851.97
2023-08-10T07:20:50.644Z,101851.75
2023-08-10T07:23:19.091Z,101860.06
2023-08-10T07:25:46.837Z,101855.47
2023-08-10T07:28:13.813Z,101851.50
2023-08-10T07:30:40.727Z,101858.56
2023-08-10T07:33:07.695Z,101859.03
2023-08-10T07:35:34.641Z,101848.28
2023-08-10T07:38:01.512Z,101844.19
2023-08-10T07:40:29.736Z,101840.06
2023-08-10T07:42:56.570Z,101842.38
2023-08-10T07:45:23.457Z,101836.47
2023-08-10T07:47:50.319Z,101838.56
2023-08-10T07:50:17.185Z,101833.41
2023-08-10T07:52:44.151Z,101831.13
2023-08-10T07:55:14.109Z,101825.28
2023-08-10T07:57:42.551Z,101824.50
2023-08-10T08:00:11.711Z,101822.16
2023-08-10T08:02:38.600Z,101827.28
2023-08-10T08:05:07.333Z,101836.16
2023-08-10T08:07:34.611Z,101828.75
2023-08-10T08:10:01.778Z,101825.31
2023-08-10T08:12:28.962Z,101818.22
2023-08-10T08:14:57.182Z,101806.88
2023-08-10T08:17:24.199Z,101813.56
2023-08-10T08:19:56.885Z,101812.34
2023-08-10T08:22:23.997Z,101803.97
2023-08-10T08:24:52.593Z,101805.44
2023-08-10T08:27:19.943Z,101809.25
2023-08-10T08:29:46.966Z,101813.97
2023-08-10T08:32:27.079Z,101820.59
2023-08-10T08:35:02.022Z,101817.44
2023-08-10T08:37:28.864Z,101817.13
2023-08-10T08:39:55.651Z,101806.59
2023-08-10T08:42:22.934Z,101815.66
2023-08-10T08:44:50.020Z,101808.59
2023-08-10T08:47:18.474Z,101803.31
2023-08-10T08:49:45.803Z,101800.09
2023-08-10T08:52:12.840Z,101790.16
2023-08-10T08:54:39.664Z,101798.41
2023-08-10T08:57:06.549Z,101799.53
2023-08-10T08:59:33.423Z,101801.75
2023-08-10T09:02:16.259Z,101803.66
2023-08-10T09:04:46.658Z,101794.03
2023-08-10T09:07:13.624Z,101801.19
2023-08-10T09:09:41.295Z,101803.53
2023-08-10T09:12:29.246Z,101791.97
2023-08-10T09:15:05.141Z,101786.59
2023-08-10T09:17:32.443Z,101792.72
2023-08-10T09:20:01.333Z,101801.59
2023-08-10T09:22:31.700Z,101800.06
2023-08-10T09:24:58.722Z,101792.75
2023-08-10T09:27:27.690Z,101779.75
2023-08-10T09:29:56.953Z,101795.47
2023-08-10T09:32:24.119Z,101801.78
2023-08-10T09:34:51.187Z,101802.72
2023-08-10T09:37:19.708Z,101802.97
2023-08-10T09:39:47.062Z,101802.59
2023-08-10T09:42:14.091Z,101804.16
2023-08-10T09:44:46.275Z,101798.25
2023-08-10T09:47:13.273Z,101804.22
2023-08-10T09:49:41.643Z,101794.13
2023-08-10T09:52:08.986Z,101800.09
2023-08-10T09:54:38.405Z,101803.31
2023-08-10T09:57:05.791Z,101806.84
2023-08-10T09:59:33.566Z,101809.72
2023-08-10T10:02:00.419Z,101814.84
2023-08-10T10:04:28.338Z,101817.56
2023-08-10T10:06:55.892Z,101820.69
2023-08-10T10:09:23.856Z,101814.28
2023-08-10T10:11:52.648Z,101820.22
2023-08-10T10:14:20.783Z,101819.47
2023-08-10T10:16:48.386Z,101815.63
2023-08-10T10:19:15.488Z,101827.28
2023-08-10T10:21:42.723Z,101813.16
2023-08-10T10:24:11.449Z,101814.69
2023-08-10T10:26:39.464Z,101806.66
2023-08-10T10:29:17.730Z,101814.84
2023-08-10T10:31:45.526Z,101815.75
2023-08-10T10:34:14.454Z,101813.38
2023-08-10T10:36:41.881Z,101821.13
2023-08-10T10:39:09.348Z,101823.28
2023-08-10T10:41:36.363Z,101830.31
2023-08-10T10:44:05.678Z,101831.06
2023-08-10T10:46:38.154Z,101826.63
2023-08-10T10:49:14.546Z,101821.00
2023-08-10T10:51:51.903Z,101820.69
2023-08-10T10:54:19.146Z,101804.88
2023-08-10T10:56:46.560Z,101815.41
2023-08-10T10:59:14.472Z,101804.28
2023-08-10T11:01:47.383Z,101817.00
2023-08-10T11:04:14.377Z,101810.63
2023-08-10T11:06:41.177Z,101813.59
2023-08-10T11:09:10.918Z,101795.19
2023-08-10T11:11:37.992Z,101796.06
2023-08-10T11:14:05.051Z,101797.31
2023-08-10T11:16:36.230Z,101799.75
2023-08-10T11:19:09.425Z,101787.16
2023-08-10T11:21:38.362Z,101783.16
2023-08-10T11:24:07.998Z,101786.50
2023-08-10T11:26:34.929Z,101787.31
2023-08-10T11:29:01.832Z,101791.25
2023-08-10T11:31:28.782Z,101794.50
2023-08-10T11:33:56.045Z,101784.28
2023-08-10T11:36:25.609Z,101783.44
2023-08-10T11:38:52.414Z,101784.13
2023-08-10T11:41:19.247Z,101781.09
2023-08-10T11:43:47.316Z,101781.53
2023-08-10T11:46:17.306Z,101783.94
2023-08-10T11:48:45.601Z,101786.22
2023-08-10T11:51:13.730Z,101796.50
2023-08-10T11:53:48.614Z,101797.00
2023-08-10T11:56:15.554Z,101797.44
2023-08-10T11:58:42.787Z,101797.53
2023-08-10T12:01:10.592Z,101798.81
2023-08-10T12:03:37.520Z,101806.25
2023-08-10T12:06:07.380Z,101812.09
2023-08-10T12:08:37.901Z,101798.50
2023-08-10T12:11:07.520Z,101799.22
2023-08-10T12:13:45.100Z,101808.03
2023-08-10T12:16:12.280Z,101811.78
2023-08-10T12:18:39.509Z,101810.81
2023-08-10T12:21:06.646Z,101811.84
2023-08-10T12:23:33.752Z,101807.56
2023-08-10T12:26:00.743Z,101803.38
2023-08-10T12:28:29.057Z,101783.19
2023-08-10T12:30:56.095Z,101778.63
2023-08-10T12:33:23.069Z,101774.22
2023-08-10T12:35:50.724Z,101782.94
2023-08-10T12:38:19.515Z,101768.28
2023-08-10T12:40:46.498Z,101772.53
2023-08-10T12:43:13.346Z,101774.06
2023-08-10T12:45:41.852Z,101765.31
2023-08-10T12:48:09.265Z,101772.19
2023-08-10T12:50:37.039Z,101756.72
2023-08-10T12:53:04.264Z,101753.47
2023-08-10T12:55:32.740Z,101750.59
2023-08-10T12:57:59.709Z,101756.06
2023-08-10T13:00:27.415Z,101753.16
2023-08-10T13:02:55.735Z,101748.66
2023-08-10T13:05:22.746Z,101754.72
2023-08-10T13:07:49.644Z,101756.59
2023-08-10T13:10:16.742Z,101761.13
2023-08-10T13:12:44.884Z,101760.03
2023-08-10T13:15:12.218Z,101754.75
2023-08-10T13:17:39.701Z,101752.47
2023-08-10T13:20:09.354Z,101759.66
2023-08-10T13:22:38.322Z,101749.66
2023-08-10T13:25:07.266Z,101751.16
2023-08-10T13:27:34.471Z,101747.97
2023-08-10T13:30:01.655Z,101738.41
2023-08-10T13:32:28.752Z,101740.47
2023-08-10T13:34:56.081Z,101747.63
2023-08-10T13:37:24.467Z,101736.81
2023-08-10T13:39:51.312Z,101724.50
2023-08-10T13:42:18.239Z,101731.13
2023-08-10T13:44:45.088Z,101720.88
2023-08-10T13:47:11.899Z,101725.56
2023-08-10T13:52:08.444Z,101709.94
2023-08-10T13:54:36.677Z,101709.63
2023-08-10T13:57:07.632Z,101710.34
2023-08-10T13:59:34.745Z,101717.63
2023-08-10T14:02:01.846Z,101725.09
2023-08-10T14:04:28.849Z,101714.06
2023-08-10T14:06:56.179Z,101715.41
2023-08-10T14:09:23.093Z,101725.94
2023-08-10T14:11:51.375Z,101706.47
2023-08-10T14:14:19.633Z,101711.06
2023-08-10T14:16:46.825Z,101709.53
2023-08-10T14:19:13.983Z,101702.63
2023-08-10T14:21:41.108Z,101710.00
2023-08-10T14:24:08.214Z,101704.06
2023-08-10T14:26:35.861Z,101702.06
2023-08-10T14:29:04.633Z,101701.63
2023-08-10T14:31:31.681Z,101700.03
2023-08-10T14:33:58.601Z,101696.44
2023-08-10T14:36:26.148Z,101696.25
2023-08-10T14:38:52.958Z,101691.56
2023-08-10T14:41:19.927Z,101690.81
2023-08-10T14:43:46.801Z,101691.09
2023-08-10T14:46:15.404Z,101691.00
2023-08-10T14:48:42.394Z,101694.00
2023-08-10T14:51:09.248Z,101686.47
2023-08-10T14:53:37.184Z,101685.09
2023-08-10T14:56:04.366Z,101684.75
2023-08-10T14:58:31.452Z,101688.22
2023-08-10T15:00:58.336Z,101688.31
2023-08-10T15:03:26.655Z,101689.63
2023-08-10T15:05:53.674Z,101693.09
2023-08-10T15:08:20.635Z,101692.03
2023-08-10T15:10:48.057Z,101681.47
2023-08-10T15:13:14.953Z,101684.31
2023-08-10T15:15:41.871Z,101685.81
2023-08-10T15:18:08.797Z,101690.53
2023-08-10T15:20:36.983Z,101688.88
2023-08-10T15:23:09.844Z,101687.97
2023-08-10T15:25:42.598Z,101679.53
2023-08-10T15:28:09.930Z,101688.41
2023-08-10T15:30:36.851Z,101688.72
2023-08-10T15:33:04.283Z,101685.00
2023-08-10T15:35:31.215Z,101689.69
2023-08-10T15:37:59.653Z,101687.22
2023-08-10T15:40:26.462Z,101676.13
2023-08-10T15:42:53.315Z,101677.97
2023-08-10T15:45:20.813Z,101686.16
2023-08-10T15:47:47.660Z,101688.50
2023-08-10T15:50:16.197Z,101683.00
2023-08-10T15:52:43.750Z,101683.19
2023-08-10T15:55:12.027Z,101678.88
2023-08-10T15:57:38.932Z,101684.78
2023-08-10T16:00:07.958Z,101675.22
2023-08-10T16:02:34.773Z,101670.66
2023-08-10T16:05:01.758Z,101672.22
2023-08-10T16:07:28.573Z,101670.41
2023-08-10T16:09:55.438Z,101670.75
2023-08-10T16:12:23.622Z,101673.19
2023-08-10T16:14:50.484Z,101678.06
2023-08-10T16:17:17.361Z,101672.22
2023-08-10T16:19:44.240Z,101682.00
2023-08-10T16:22:11.176Z,101681.22
2023-08-10T16:24:38.150Z,101679.50
2023-08-10T16:27:05.644Z,101686.00
2023-08-10T16:29:35.424Z,101684.28
2023-08-10T16:32:02.734Z,101679.22
2023-08-10T16:34:29.655Z,101680.97
2023-08-10T16:36:56.796Z,101679.69
2023-08-10T16:39:23.674Z,101676.88
2023-08-10T16:41:50.526Z,101671.66
2023-08-10T16:44:17.384Z,101679.09
2023-08-10T16:46:45.770Z,101682.72
2023-08-10T16:49:12.824Z,101676.78
2023-08-10T16:51:39.660Z,101681.72
2023-08-10T16:54:09.359Z,101684.66
2023-08-10T16:56:40.160Z,101675.97
2023-08-10T16:59:07.432Z,101686.78
2023-08-10T17:01:35.228Z,101696.00
2023-08-10T17:04:04.255Z,101691.16
2023-08-10T17:06:31.188Z,101688.38
2023-08-10T17:08:58.836Z,101678.94
2023-08-10T17:11:25.823Z,101678.28
2023-08-10T17:13:54.500Z,101679.38
2023-08-10T17:16:23.292Z,101683.31
2023-08-10T17:18:50.191Z,101669.75
2023-08-10T17:21:18.462Z,101675.66
2023-08-10T17:23:46.340Z,101672.63
2023-08-10T17:26:13.289Z,101671.81
2023-08-10T17:28:40.191Z,101670.34
2023-08-10T17:31:07.194Z,101665.66
2023-08-10T17:33:34.484Z,101665.81
2023-08-10T17:36:01.550Z,101664.78
2023-08-10T17:38:29.825Z,101666.09
2023-08-10T17:40:56.769Z,101669.97
2023-08-10T17:43:24.140Z,101665.53
2023-08-10T17:45:51.089Z,101667.06
2023-08-10T17:48:18.680Z,101669.31
2023-08-10T17:50:45.646Z,101662.50
2023-08-10T17:53:12.734Z,101658.59
2023-08-10T17:55:40.971Z,101655.06
2023-08-10T17:58:07.863Z,101658.25
2023-08-10T18:00:34.754Z,101659.19
2023-08-10T18:03:01.933Z,101653.94
2023-08-10T18:05:28.915Z,101654.19
2023-08-10T18:07:55.737Z,101654.84
2023-08-10T18:10:22.681Z,101657.22
2023-08-10T18:12:50.906Z,101651.38
2023-08-10T18:15:17.945Z,101641.50
2023-08-10T18:17:44.804Z,101636.97
2023-08-10T18:20:12.583Z,101631.31
2023-08-10T18:22:39.464Z,101630.66
2023-08-10T18:25:07.018Z,101634.31
2023-08-10T18:27:33.989Z,101630.75
2023-08-10T18:30:02.148Z,101629.53
2023-08-10T18:32:29.148Z,101630.91
2023-08-10T18:34:56.075Z,101629.75
2023-08-10T18:37:23.068Z,101630.97
2023-08-10T18:39:51.129Z,101635.53
2023-08-10T18:42:18.394Z,101631.59
2023-08-10T18:44:45.261Z,101635.38
2023-08-10T18:47:14.175Z,101641.66
2023-08-10T18:49:41.735Z,101644.19
2023-08-10T18:52:08.871Z,101641.78
2023-08-10T18:54:36.047Z,101643.06
2023-08-10T18:57:03.069Z,101638.63
2023-08-10T18:59:29.899Z,101647.66
2023-08-10T19:01:56.902Z,101639.16
2023-08-10T19:04:26.296Z,101655.50
2023-08-10T19:06:54.566Z,101638.06
2023-08-10T19:09:21.816Z,101637.25
2023-08-10T19:11:48.762Z,101641.81
2023-08-10T19:14:15.823Z,101636.53
2023-08-10T19:16:42.692Z,101641.50
2023-08-10T19:19:09.531Z,101636.63
2023-08-10T19:21:37.760Z,101640.75
2023-08-10T19:24:05.210Z,101637.47
2023-08-10T19:26:32.110Z,101641.16
2023-08-10T19:28:59.101Z,101640.78
2023-08-10T19:31:26.150Z,101640.00
2023-08-10T19:33:53.042Z,101640.41
2023-08-10T19:36:20.270Z,101642.47
2023-08-10T19:38:48.725Z,101651.84
2023-08-10T19:41:15.555Z,101648.19
2023-08-10T19:43:42.700Z,101647.38
2023-08-10T19:46:09.752Z,101649.00
2023-08-10T19:48:36.663Z,101640.41
2023-08-10T19:51:03.558Z,101648.97
2023-08-10T19:53:30.404Z,101642.88
2023-08-10T19:55:58.765Z,101645.28
2023-08-10T19:58:27.547Z,101649.38
2023-08-10T20:00:54.521Z,101649.75
2023-08-10T20:03:26.142Z,101663.19
2023-08-10T20:05:53.039Z,101662.81
2023-08-10T20:08:20.151Z,101659.50
2023-08-10T20:10:47.045Z,101667.66
2023-08-10T20:13:15.314Z,101655.03
2023-08-10T20:15:42.698Z,101659.47
2023-08-10T20:18:10.194Z,101663.16
2023-08-10T20:20:37.456Z,101670.44
2023-08-10T20:23:04.952Z,101669.13
2023-08-10T20:25:32.658Z,101659.78
2023-08-10T20:28:04.624Z,101656.56
2023-08-10T20:30:34.288Z,101657.78
2023-08-10T20:33:01.391Z,101652.47
2023-08-10T20:35:28.304Z,101652.94
2023-08-10T20:37:55.168Z,101652.50
2023-08-10T20:40:22.054Z,101647.59
2023-08-10T20:42:49.732Z,101658.16
2023-08-10T20:45:16.642Z,101654.53
2023-08-10T20:47:44.960Z,101653.72
2023-08-10T20:50:11.837Z,101660.59
2023-08-10T20:52:38.794Z,101645.97
2023-08-10T20:55:07.814Z,101656.50
2023-08-10T20:57:34.836Z,101659.34
2023-08-10T21:00:01.708Z,101658.94
2023-08-10T21:02:28.617Z,101660.53
2023-08-10T21:04:56.893Z,101648.78
2023-08-10T21:07:26.694Z,101654.84
2023-08-10T21:09:53.564Z,101661.69
2023-08-10T21:12:20.706Z,101657.25
2023-08-10T21:14:47.582Z,101651.56
2023-08-10T21:17:14.418Z,101654.41
2023-08-10T21:19:41.271Z,101660.50
2023-08-10T21:22:10.159Z,101654.47
2023-08-10T21:24:36.988Z,101651.63
2023-08-10T21:27:04.107Z,101660.56
2023-08-10T21:29:30.979Z,101656.13
2023-08-10T21:31:57.856Z,101666.66
2023-08-10T21:34:24.873Z,101674.75
2023-08-10T21:36:51.787Z,101663.34
2023-08-10T21:39:20.133Z,101670.66
2023-08-10T21:41:46.983Z,101669.78
2023-08-10T21:44:13.819Z,101668.91
2023-08-10T21:46:40.857Z,101668.50
2023-08-10T21:49:07.681Z,101675.81
2023-08-10T21:51:35.489Z,101675.38
2023-08-10T21:54:02.416Z,101667.66
2023-08-10T21:56:30.724Z,101666.06
2023-08-10T21:58:57.571Z,101670.09
2023-08-10T22:01:24.653Z,101669.25
2023-08-10T22:03:51.651Z,101665.22
2023-08-10T22:06:18.514Z,101666.13
2023-08-10T22:08:45.416Z,101670.50
2023-08-10T22:11:12.325Z,101673.28
2023-08-10T22:13:40.641Z,101663.91
2023-08-10T22:16:07.566Z,101670.81
2023-08-10T22:18:35.792Z,101668.06
2023-08-10T22:21:03.097Z,101675.81
2023-08-10T22:23:30.252Z,101671.00
2023-08-10T22:25:57.459Z,101681.59
2023-08-10T22:28:24.351Z,101684.00
2023-08-10T22:30:53.068Z,101681.56
2023-08-10T22:33:20.232Z,101675.41
2023-08-10T22:35:47.148Z,101677.84
2023-08-10T22:38:13.994Z,101676.59
2023-08-10T22:40:41.080Z,101672.94
2023-08-10T22:43:08.307Z,101673.78
2023-08-10T22:45:35.245Z,101669.75
2023-08-10T22:48:05.227Z,101670.94
2023-08-10T22:50:32.369Z,101677.75
2023-08-10T22:52:59.431Z,101668.44
2023-08-10T22:55:26.357Z,101670.91
2023-08-10T22:57:53.321Z,101668.81
2023-08-10T23:00:20.524Z,101672.75
2023-08-10T23:02:49.195Z,101664.63
2023-08-10T23:05:17.648Z,101670.00
2023-08-10T23:07:44.605Z,101659.13
2023-08-10T23:10:12.098Z,101659.97
2023-08-10T23:12:39.078Z,101653.13
2023-08-10T23:15:09.002Z,101660.81
2023-08-10T23:17:35.857Z,101655.09
2023-08-10T23:20:12.198Z,101653.41
2023-08-10T23:22:41.292Z,101653.44
2023-08-10T23:25:09.075Z,101649.41
2023-08-10T23:27:36.930Z,101644.06
2023-08-10T23:30:05.504Z,101647.28
2023-08-10T23:32:32.448Z,101636.59
2023-08-10T23:34:59.423Z,101638.16
2023-08-10T23:37:26.372Z,101644.22
2023-08-10T23:39:55.304Z,101636.47
2023-08-10T23:42:22.353Z,101631.16
2023-08-10T23:44:49.685Z,101622.72
2023-08-10T23:47:17.451Z,101621.91
2023-08-10T23:49:44.830Z,101633.66
2023-08-10T23:52:11.775Z,101620.66
2023-08-10T23:54:38.837Z,101625.75
2023-08-10T23:57:07.354Z,101619.78
2023-08-10T23:59:34.896Z,101616.56
